sensor_id;sensor_type;location;lat;lon;timestamp;temperature;humidity
67529;DHT22;54366;51.980;5.856;2022-11-15T00:02:26;9.00;82.80
67529;DHT22;54366;51.980;5.856;2022-11-15T00:05:11;9.10;83.10
67529;DHT22;54366;51.980;5.856;2022-11-15T00:07:56;9.00;83.10
67529;DHT22;54366;51.980;5.856;2022-11-15T00:10:42;9.10;83.30
67529;DHT22;54366;51.980;5.856;2022-11-15T00:13:27;9.10;83.30
67529;DHT22;54366;51.980;5.856;2022-11-15T00:16:12;9.00;83.20
67529;DHT22;54366;51.980;5.856;2022-11-15T00:18:57;9.10;83.30
67529;DHT22;54366;51.980;5.856;2022-11-15T00:21:42;9.10;83.20
67529;DHT22;54366;51.980;5.856;2022-11-15T00:24:27;9.10;83.20
67529;DHT22;54366;51.980;5.856;2022-11-15T00:27:11;9.20;83.40
67529;DHT22;54366;51.980;5.856;2022-11-15T00:29:56;9.20;83.50
67529;DHT22;54366;51.980;5.856;2022-11-15T00:32:41;9.20;83.50
67529;DHT22;54366;51.980;5.856;2022-11-15T00:35:26;9.20;83.40
67529;DHT22;54366;51.980;5.856;2022-11-15T00:38:11;9.20;83.70
67529;DHT22;54366;51.980;5.856;2022-11-15T00:40:56;9.20;83.80
67529;DHT22;54366;51.980;5.856;2022-11-15T00:43:41;9.20;84.00
67529;DHT22;54366;51.980;5.856;2022-11-15T00:46:27;9.20;83.80
67529;DHT22;54366;51.980;5.856;2022-11-15T00:49:12;9.20;83.80
67529;DHT22;54366;51.980;5.856;2022-11-15T00:51:57;9.20;83.90
67529;DHT22;54366;51.980;5.856;2022-11-15T00:54:42;9.30;84.00
67529;DHT22;54366;51.980;5.856;2022-11-15T00:57:26;9.30;84.00
67529;DHT22;54366;51.980;5.856;2022-11-15T01:00:11;9.30;84.30
67529;DHT22;54366;51.980;5.856;2022-11-15T01:02:56;9.30;84.30
67529;DHT22;54366;51.980;5.856;2022-11-15T01:05:41;9.30;84.00
67529;DHT22;54366;51.980;5.856;2022-11-15T01:08:26;9.30;83.90
67529;DHT22;54366;51.980;5.856;2022-11-15T01:11:12;9.30;84.10
67529;DHT22;54366;51.980;5.856;2022-11-15T01:13:56;9.30;84.00
67529;DHT22;54366;51.980;5.856;2022-11-15T01:16:41;9.30;84.00
67529;DHT22;54366;51.980;5.856;2022-11-15T01:19:25;9.30;84.10
67529;DHT22;54366;51.980;5.856;2022-11-15T01:22:10;9.30;84.20
67529;DHT22;54366;51.980;5.856;2022-11-15T01:24:55;9.40;84.30
67529;DHT22;54366;51.980;5.856;2022-11-15T01:27:40;9.30;84.30
67529;DHT22;54366;51.980;5.856;2022-11-15T01:30:24;9.40;84.30
67529;DHT22;54366;51.980;5.856;2022-11-15T01:33:09;9.40;84.20
67529;DHT22;54366;51.980;5.856;2022-11-15T01:35:54;9.40;84.30
67529;DHT22;54366;51.980;5.856;2022-11-15T01:38:39;9.40;84.20
67529;DHT22;54366;51.980;5.856;2022-11-15T01:41:29;9.40;84.30
67529;DHT22;54366;51.980;5.856;2022-11-15T01:47:21;9.40;84.30
67529;DHT22;54366;51.980;5.856;2022-11-15T01:50:16;9.50;84.30
67529;DHT22;54366;51.980;5.856;2022-11-15T01:53:02;9.50;84.30
67529;DHT22;54366;51.980;5.856;2022-11-15T01:55:47;9.50;84.30
67529;DHT22;54366;51.980;5.856;2022-11-15T01:58:32;9.50;84.30
67529;DHT22;54366;51.980;5.856;2022-11-15T02:01:17;9.60;85.00
67529;DHT22;54366;51.980;5.856;2022-11-15T02:04:16;9.50;84.50
67529;DHT22;54366;51.980;5.856;2022-11-15T02:07:03;9.60;84.60
67529;DHT22;54366;51.980;5.856;2022-11-15T02:09:50;9.60;84.60
67529;DHT22;54366;51.980;5.856;2022-11-15T02:12:35;9.60;84.60
67529;DHT22;54366;51.980;5.856;2022-11-15T02:15:20;9.60;84.60
67529;DHT22;54366;51.980;5.856;2022-11-15T02:18:28;9.70;84.80
67529;DHT22;54366;51.980;5.856;2022-11-15T02:21:32;9.70;84.70
67529;DHT22;54366;51.980;5.856;2022-11-15T02:27:52;9.70;84.50
67529;DHT22;54366;51.980;5.856;2022-11-15T02:30:45;9.70;84.50
67529;DHT22;54366;51.980;5.856;2022-11-15T02:39:51;9.80;84.70
67529;DHT22;54366;51.980;5.856;2022-11-15T02:42:48;9.80;84.80
67529;DHT22;54366;51.980;5.856;2022-11-15T02:49:33;9.80;84.80
67529;DHT22;54366;51.980;5.856;2022-11-15T02:52:24;9.80;85.30
67529;DHT22;54366;51.980;5.856;2022-11-15T02:55:34;9.80;84.80
67529;DHT22;54366;51.980;5.856;2022-11-15T03:04:52;9.90;84.70
67529;DHT22;54366;51.980;5.856;2022-11-15T03:07:54;10.00;84.80
67529;DHT22;54366;51.980;5.856;2022-11-15T03:11:10;10.00;84.80
67529;DHT22;54366;51.980;5.856;2022-11-15T03:14:07;10.00;84.70
67529;DHT22;54366;51.980;5.856;2022-11-15T03:19:51;10.10;84.90
67529;DHT22;54366;51.980;5.856;2022-11-15T03:22:40;10.10;85.40
67529;DHT22;54366;51.980;5.856;2022-11-15T03:25:28;10.10;85.00
67529;DHT22;54366;51.980;5.856;2022-11-15T03:28:25;10.20;85.60
67529;DHT22;54366;51.980;5.856;2022-11-15T03:31:14;10.20;85.20
67529;DHT22;54366;51.980;5.856;2022-11-15T03:37:07;10.30;85.20
67529;DHT22;54366;51.980;5.856;2022-11-15T03:39:54;10.30;85.00
67529;DHT22;54366;51.980;5.856;2022-11-15T03:45:58;10.40;85.30
67529;DHT22;54366;51.980;5.856;2022-11-15T03:48:50;10.50;85.30
67529;DHT22;54366;51.980;5.856;2022-11-15T03:51:36;10.50;85.30
67529;DHT22;54366;51.980;5.856;2022-11-15T03:54:20;10.50;85.60
67529;DHT22;54366;51.980;5.856;2022-11-15T03:57:05;10.60;85.30
67529;DHT22;54366;51.980;5.856;2022-11-15T03:59:50;10.60;85.50
67529;DHT22;54366;51.980;5.856;2022-11-15T04:02:35;10.70;85.40
67529;DHT22;54366;51.980;5.856;2022-11-15T04:05:20;10.70;85.40
67529;DHT22;54366;51.980;5.856;2022-11-15T04:08:04;10.80;85.70
67529;DHT22;54366;51.980;5.856;2022-11-15T04:10:49;10.80;85.50
67529;DHT22;54366;51.980;5.856;2022-11-15T04:13:34;10.90;85.90
67529;DHT22;54366;51.980;5.856;2022-11-15T04:16:19;10.90;86.40
67529;DHT22;54366;51.980;5.856;2022-11-15T04:19:04;10.90;86.90
67529;DHT22;54366;51.980;5.856;2022-11-15T04:22:08;11.00;86.60
67529;DHT22;54366;51.980;5.856;2022-11-15T04:25:11;11.00;86.60
67529;DHT22;54366;51.980;5.856;2022-11-15T04:27:56;11.10;86.50
67529;DHT22;54366;51.980;5.856;2022-11-15T04:30:41;11.10;86.30
67529;DHT22;54366;51.980;5.856;2022-11-15T04:33:26;11.10;86.10
67529;DHT22;54366;51.980;5.856;2022-11-15T04:36:10;11.10;86.00
67529;DHT22;54366;51.980;5.856;2022-11-15T04:39:14;11.20;86.30
67529;DHT22;54366;51.980;5.856;2022-11-15T04:41:59;11.20;86.00
67529;DHT22;54366;51.980;5.856;2022-11-15T04:44:44;11.20;85.90
67529;DHT22;54366;51.980;5.856;2022-11-15T04:47:28;11.20;85.90
67529;DHT22;54366;51.980;5.856;2022-11-15T04:50:14;11.20;85.80
67529;DHT22;54366;51.980;5.856;2022-11-15T04:52:59;11.30;85.80
67529;DHT22;54366;51.980;5.856;2022-11-15T04:55:45;11.30;85.80
67529;DHT22;54366;51.980;5.856;2022-11-15T04:58:30;11.30;85.60
67529;DHT22;54366;51.980;5.856;2022-11-15T05:01:16;11.30;86.20
67529;DHT22;54366;51.980;5.856;2022-11-15T05:04:01;11.30;85.70
67529;DHT22;54366;51.980;5.856;2022-11-15T05:07:04;11.40;86.00
67529;DHT22;54366;51.980;5.856;2022-11-15T05:09:49;11.40;86.00
67529;DHT22;54366;51.980;5.856;2022-11-15T05:12:34;11.40;86.10
67529;DHT22;54366;51.980;5.856;2022-11-15T05:15:18;11.40;86.00
67529;DHT22;54366;51.980;5.856;2022-11-15T05:18:03;11.40;85.90
67529;DHT22;54366;51.980;5.856;2022-11-15T05:20:48;11.50;86.00
67529;DHT22;54366;51.980;5.856;2022-11-15T05:23:32;11.50;86.10
67529;DHT22;54366;51.980;5.856;2022-11-15T05:26:18;11.50;86.10
67529;DHT22;54366;51.980;5.856;2022-11-15T05:29:03;11.50;86.00
67529;DHT22;54366;51.980;5.856;2022-11-15T05:31:48;11.50;85.90
67529;DHT22;54366;51.980;5.856;2022-11-15T05:34:33;11.50;85.80
67529;DHT22;54366;51.980;5.856;2022-11-15T05:37:17;11.60;85.80
67529;DHT22;54366;51.980;5.856;2022-11-15T05:40:02;11.60;85.70
67529;DHT22;54366;51.980;5.856;2022-11-15T05:42:48;11.60;85.70
67529;DHT22;54366;51.980;5.856;2022-11-15T05:45:33;11.60;85.70
67529;DHT22;54366;51.980;5.856;2022-11-15T05:48:19;11.60;85.90
67529;DHT22;54366;51.980;5.856;2022-11-15T05:51:05;11.60;86.00
67529;DHT22;54366;51.980;5.856;2022-11-15T05:53:51;11.60;85.80
67529;DHT22;54366;51.980;5.856;2022-11-15T05:56:37;11.70;86.00
67529;DHT22;54366;51.980;5.856;2022-11-15T05:59:22;11.70;86.00
67529;DHT22;54366;51.980;5.856;2022-11-15T06:02:07;11.60;86.00
67529;DHT22;54366;51.980;5.856;2022-11-15T06:04:51;11.70;86.20
67529;DHT22;54366;51.980;5.856;2022-11-15T06:07:36;11.70;86.20
67529;DHT22;54366;51.980;5.856;2022-11-15T06:10:21;11.70;86.30
67529;DHT22;54366;51.980;5.856;2022-11-15T06:13:05;11.70;86.10
67529;DHT22;54366;51.980;5.856;2022-11-15T06:15:50;11.70;86.10
67529;DHT22;54366;51.980;5.856;2022-11-15T06:18:36;11.70;86.40
67529;DHT22;54366;51.980;5.856;2022-11-15T06:21:21;11.80;86.50
67529;DHT22;54366;51.980;5.856;2022-11-15T06:24:06;11.80;86.50
67529;DHT22;54366;51.980;5.856;2022-11-15T06:26:51;11.80;86.50
67529;DHT22;54366;51.980;5.856;2022-11-15T06:29:36;11.80;86.80
67529;DHT22;54366;51.980;5.856;2022-11-15T06:32:21;11.80;86.60
67529;DHT22;54366;51.980;5.856;2022-11-15T06:35:05;11.80;86.50
67529;DHT22;54366;51.980;5.856;2022-11-15T06:37:50;11.80;86.50
67529;DHT22;54366;51.980;5.856;2022-11-15T06:40:37;11.90;86.60
67529;DHT22;54366;51.980;5.856;2022-11-15T06:43:21;11.90;86.50
67529;DHT22;54366;51.980;5.856;2022-11-15T06:46:06;11.90;86.50
67529;DHT22;54366;51.980;5.856;2022-11-15T06:48:52;11.90;86.40
67529;DHT22;54366;51.980;5.856;2022-11-15T06:51:37;11.80;86.30
67529;DHT22;54366;51.980;5.856;2022-11-15T06:54:22;11.90;86.50
67529;DHT22;54366;51.980;5.856;2022-11-15T06:57:06;11.90;86.60
67529;DHT22;54366;51.980;5.856;2022-11-15T06:59:51;11.90;86.80
67529;DHT22;54366;51.980;5.856;2022-11-15T07:02:35;11.90;86.60
67529;DHT22;54366;51.980;5.856;2022-11-15T07:05:21;11.90;86.80
67529;DHT22;54366;51.980;5.856;2022-11-15T07:08:06;11.90;86.80
67529;DHT22;54366;51.980;5.856;2022-11-15T07:10:51;12.00;86.80
67529;DHT22;54366;51.980;5.856;2022-11-15T07:13:36;11.90;86.70
67529;DHT22;54366;51.980;5.856;2022-11-15T07:16:21;12.00;86.80
67529;DHT22;54366;51.980;5.856;2022-11-15T07:19:08;12.00;86.80
67529;DHT22;54366;51.980;5.856;2022-11-15T07:21:53;12.00;86.70
67529;DHT22;54366;51.980;5.856;2022-11-15T07:24:37;11.90;86.80
67529;DHT22;54366;51.980;5.856;2022-11-15T07:27:22;12.00;86.90
67529;DHT22;54366;51.980;5.856;2022-11-15T07:30:07;12.00;87.00
67529;DHT22;54366;51.980;5.856;2022-11-15T07:33:00;12.00;86.90
67529;DHT22;54366;51.980;5.856;2022-11-15T07:35:45;12.00;87.00
67529;DHT22;54366;51.980;5.856;2022-11-15T07:38:33;12.00;87.00
67529;DHT22;54366;51.980;5.856;2022-11-15T07:41:18;12.00;87.00
67529;DHT22;54366;51.980;5.856;2022-11-15T07:44:03;12.00;86.90
67529;DHT22;54366;51.980;5.856;2022-11-15T07:46:48;12.00;86.80
67529;DHT22;54366;51.980;5.856;2022-11-15T07:49:33;12.00;86.80
67529;DHT22;54366;51.980;5.856;2022-11-15T07:52:17;12.00;86.70
67529;DHT22;54366;51.980;5.856;2022-11-15T07:55:03;12.00;86.70
67529;DHT22;54366;51.980;5.856;2022-11-15T07:57:48;12.00;86.80
67529;DHT22;54366;51.980;5.856;2022-11-15T08:00:33;12.00;86.90
67529;DHT22;54366;51.980;5.856;2022-11-15T08:03:17;12.00;87.00
67529;DHT22;54366;51.980;5.856;2022-11-15T08:06:04;12.00;86.80
67529;DHT22;54366;51.980;5.856;2022-11-15T08:08:48;12.10;87.00
67529;DHT22;54366;51.980;5.856;2022-11-15T08:11:33;12.10;87.10
67529;DHT22;54366;51.980;5.856;2022-11-15T08:14:18;12.10;87.10
67529;DHT22;54366;51.980;5.856;2022-11-15T08:17:03;12.10;87.20
67529;DHT22;54366;51.980;5.856;2022-11-15T08:19:47;12.10;87.00
67529;DHT22;54366;51.980;5.856;2022-11-15T08:22:33;12.10;87.20
67529;DHT22;54366;51.980;5.856;2022-11-15T08:25:18;12.20;87.20
67529;DHT22;54366;51.980;5.856;2022-11-15T08:28:05;12.20;87.80
67529;DHT22;54366;51.980;5.856;2022-11-15T08:30:50;12.20;87.20
67529;DHT22;54366;51.980;5.856;2022-11-15T08:33:35;12.20;87.20
67529;DHT22;54366;51.980;5.856;2022-11-15T08:36:19;12.20;87.30
67529;DHT22;54366;51.980;5.856;2022-11-15T08:39:04;12.20;87.10
67529;DHT22;54366;51.980;5.856;2022-11-15T08:41:49;12.20;87.00
67529;DHT22;54366;51.980;5.856;2022-11-15T08:44:40;12.30;87.10
67529;DHT22;54366;51.980;5.856;2022-11-15T08:47:25;12.30;87.30
67529;DHT22;54366;51.980;5.856;2022-11-15T08:50:10;12.30;87.80
67529;DHT22;54366;51.980;5.856;2022-11-15T08:52:55;12.30;87.00
67529;DHT22;54366;51.980;5.856;2022-11-15T08:55:40;12.40;87.10
67529;DHT22;54366;51.980;5.856;2022-11-15T08:58:25;12.30;87.10
67529;DHT22;54366;51.980;5.856;2022-11-15T09:01:18;12.30;87.10
67529;DHT22;54366;51.980;5.856;2022-11-15T09:04:03;12.40;87.20
67529;DHT22;54366;51.980;5.856;2022-11-15T09:06:54;12.40;87.10
67529;DHT22;54366;51.980;5.856;2022-11-15T09:09:39;12.50;87.40
67529;DHT22;54366;51.980;5.856;2022-11-15T09:12:24;12.50;87.30
67529;DHT22;54366;51.980;5.856;2022-11-15T09:15:10;12.50;87.30
67529;DHT22;54366;51.980;5.856;2022-11-15T09:17:58;12.50;87.30
67529;DHT22;54366;51.980;5.856;2022-11-15T09:20:43;12.50;87.30
67529;DHT22;54366;51.980;5.856;2022-11-15T09:23:27;12.50;87.20
67529;DHT22;54366;51.980;5.856;2022-11-15T09:26:13;12.50;87.30
67529;DHT22;54366;51.980;5.856;2022-11-15T09:28:58;12.60;87.40
67529;DHT22;54366;51.980;5.856;2022-11-15T09:31:42;12.60;87.50
67529;DHT22;54366;51.980;5.856;2022-11-15T09:34:27;12.50;87.80
67529;DHT22;54366;51.980;5.856;2022-11-15T09:37:11;12.50;87.20
67529;DHT22;54366;51.980;5.856;2022-11-15T09:39:56;12.60;87.30
67529;DHT22;54366;51.980;5.856;2022-11-15T09:43:38;12.60;87.30
67529;DHT22;54366;51.980;5.856;2022-11-15T09:49:01;12.60;87.30
67529;DHT22;54366;51.980;5.856;2022-11-15T09:51:52;12.70;87.50
67529;DHT22;54366;51.980;5.856;2022-11-15T09:57:04;12.70;87.30
67529;DHT22;54366;51.980;5.856;2022-11-15T09:59:41;12.70;87.20
67529;DHT22;54366;51.980;5.856;2022-11-15T10:04:54;12.80;87.20
67529;DHT22;54366;51.980;5.856;2022-11-15T10:10:44;12.90;86.90
67529;DHT22;54366;51.980;5.856;2022-11-15T10:13:25;12.80;86.50
67529;DHT22;54366;51.980;5.856;2022-11-15T10:15:53;12.80;86.60
67529;DHT22;54366;51.980;5.856;2022-11-15T10:24:12;12.90;86.40
67529;DHT22;54366;51.980;5.856;2022-11-15T10:26:45;12.80;86.30
67529;DHT22;54366;51.980;5.856;2022-11-15T10:29:11;12.80;86.30
67529;DHT22;54366;51.980;5.856;2022-11-15T10:31:43;12.80;86.00
67529;DHT22;54366;51.980;5.856;2022-11-15T10:34:21;12.80;85.90
67529;DHT22;54366;51.980;5.856;2022-11-15T10:36:56;12.80;85.90
67529;DHT22;54366;51.980;5.856;2022-11-15T10:39:23;12.90;85.90
67529;DHT22;54366;51.980;5.856;2022-11-15T10:41:50;12.90;85.50
67529;DHT22;54366;51.980;5.856;2022-11-15T10:46:44;12.90;84.60
67529;DHT22;54366;51.980;5.856;2022-11-15T10:54:45;13.00;83.70
67529;DHT22;54366;51.980;5.856;2022-11-15T10:57:21;13.10;83.90
67529;DHT22;54366;51.980;5.856;2022-11-15T10:59:53;13.20;83.60
67529;DHT22;54366;51.980;5.856;2022-11-15T11:02:37;13.20;83.30
67529;DHT22;54366;51.980;5.856;2022-11-15T11:05:33;13.20;82.20
67529;DHT22;54366;51.980;5.856;2022-11-15T11:08:09;13.20;81.60
67529;DHT22;54366;51.980;5.856;2022-11-15T11:10:55;13.20;81.10
67529;DHT22;54366;51.980;5.856;2022-11-15T11:13:25;13.30;80.40
67529;DHT22;54366;51.980;5.856;2022-11-15T11:24:36;13.50;78.90
67529;DHT22;54366;51.980;5.856;2022-11-15T11:27:32;13.50;77.90
67529;DHT22;54366;51.980;5.856;2022-11-15T11:36:00;13.70;75.60
67529;DHT22;54366;51.980;5.856;2022-11-15T11:46:53;13.90;72.70
67529;DHT22;54366;51.980;5.856;2022-11-15T11:54:32;14.00;72.60
67529;DHT22;54366;51.980;5.856;2022-11-15T11:57:07;14.00;72.40
67529;DHT22;54366;51.980;5.856;2022-11-15T11:59:50;14.00;73.00
67529;DHT22;54366;51.980;5.856;2022-11-15T12:02:31;14.10;73.20
67529;DHT22;54366;51.980;5.856;2022-11-15T12:05:18;14.10;72.10
67529;DHT22;54366;51.980;5.856;2022-11-15T12:07:47;14.20;71.80
67529;DHT22;54366;51.980;5.856;2022-11-15T12:10:28;14.20;71.40
67529;DHT22;54366;51.980;5.856;2022-11-15T12:13:04;14.30;71.40
67529;DHT22;54366;51.980;5.856;2022-11-15T12:15:37;14.30;71.90
67529;DHT22;54366;51.980;5.856;2022-11-15T12:18:09;14.30;71.70
67529;DHT22;54366;51.980;5.856;2022-11-15T12:20:40;14.30;71.10
67529;DHT22;54366;51.980;5.856;2022-11-15T12:23:20;14.30;68.90
67529;DHT22;54366;51.980;5.856;2022-11-15T12:26:01;14.30;69.80
67529;DHT22;54366;51.980;5.856;2022-11-15T12:28:52;14.30;70.10
67529;DHT22;54366;51.980;5.856;2022-11-15T12:31:39;14.40;70.00
67529;DHT22;54366;51.980;5.856;2022-11-15T12:36:50;14.30;68.50
67529;DHT22;54366;51.980;5.856;2022-11-15T12:39:17;14.20;67.70
67529;DHT22;54366;51.980;5.856;2022-11-15T12:47:04;14.30;68.20
67529;DHT22;54366;51.980;5.856;2022-11-15T12:49:48;14.20;67.20
67529;DHT22;54366;51.980;5.856;2022-11-15T12:52:15;14.20;67.80
67529;DHT22;54366;51.980;5.856;2022-11-15T13:02:21;14.30;67.80
67529;DHT22;54366;51.980;5.856;2022-11-15T13:04:49;14.30;68.00
67529;DHT22;54366;51.980;5.856;2022-11-15T13:10:01;14.20;66.50
67529;DHT22;54366;51.980;5.856;2022-11-15T13:14:59;14.20;67.30
67529;DHT22;54366;51.980;5.856;2022-11-15T13:22:28;14.10;66.40
67529;DHT22;54366;51.980;5.856;2022-11-15T13:31:24;14.00;66.30
67529;DHT22;54366;51.980;5.856;2022-11-15T13:33:52;14.00;66.80
67529;DHT22;54366;51.980;5.856;2022-11-15T13:36:25;14.00;66.40
67529;DHT22;54366;51.980;5.856;2022-11-15T13:38:56;13.90;66.90
67529;DHT22;54366;51.980;5.856;2022-11-15T13:41:28;13.90;66.80
67529;DHT22;54366;51.980;5.856;2022-11-15T13:43:56;13.90;66.90
67529;DHT22;54366;51.980;5.856;2022-11-15T13:46:28;13.90;67.40
67529;DHT22;54366;51.980;5.856;2022-11-15T13:49:01;13.90;67.60
67529;DHT22;54366;51.980;5.856;2022-11-15T13:56:33;13.90;68.10
67529;DHT22;54366;51.980;5.856;2022-11-15T13:59:07;13.90;66.50
67529;DHT22;54366;51.980;5.856;2022-11-15T14:01:34;13.80;67.50
67529;DHT22;54366;51.980;5.856;2022-11-15T14:04:01;13.90;68.10
67529;DHT22;54366;51.980;5.856;2022-11-15T14:06:29;13.90;67.30
67529;DHT22;54366;51.980;5.856;2022-11-15T14:11:49;13.80;67.80
67529;DHT22;54366;51.980;5.856;2022-11-15T14:14:15;13.80;67.60
67529;DHT22;54366;51.980;5.856;2022-11-15T14:16:46;13.80;66.40
67529;DHT22;54366;51.980;5.856;2022-11-15T14:19:34;13.80;67.40
67529;DHT22;54366;51.980;5.856;2022-11-15T14:22:22;13.80;67.40
67529;DHT22;54366;51.980;5.856;2022-11-15T14:25:14;13.70;67.20
67529;DHT22;54366;51.980;5.856;2022-11-15T14:27:43;13.70;67.70
67529;DHT22;54366;51.980;5.856;2022-11-15T14:30:17;13.70;67.30
67529;DHT22;54366;51.980;5.856;2022-11-15T14:32:47;13.70;66.90
67529;DHT22;54366;51.980;5.856;2022-11-15T14:35:17;13.70;67.50
67529;DHT22;54366;51.980;5.856;2022-11-15T14:37:44;13.70;67.30
67529;DHT22;54366;51.980;5.856;2022-11-15T14:40:14;13.70;67.70
67529;DHT22;54366;51.980;5.856;2022-11-15T14:42:42;13.70;67.10
67529;DHT22;54366;51.980;5.856;2022-11-15T14:45:16;13.60;67.50
67529;DHT22;54366;51.980;5.856;2022-11-15T14:47:43;13.60;67.90
67529;DHT22;54366;51.980;5.856;2022-11-15T14:50:18;13.60;67.80
67529;DHT22;54366;51.980;5.856;2022-11-15T14:52:45;13.60;67.50
67529;DHT22;54366;51.980;5.856;2022-11-15T14:55:27;13.60;67.80
67529;DHT22;54366;51.980;5.856;2022-11-15T14:57:55;13.60;67.90
67529;DHT22;54366;51.980;5.856;2022-11-15T15:00:21;13.60;68.00
67529;DHT22;54366;51.980;5.856;2022-11-15T15:02:48;13.50;67.90
67529;DHT22;54366;51.980;5.856;2022-11-15T15:05:22;13.60;68.10
67529;DHT22;54366;51.980;5.856;2022-11-15T15:07:49;13.50;67.40
67529;DHT22;54366;51.980;5.856;2022-11-15T15:10:16;13.50;67.70
67529;DHT22;54366;51.980;5.856;2022-11-15T15:12:43;13.50;67.90
67529;DHT22;54366;51.980;5.856;2022-11-15T15:15:32;13.60;66.50
67529;DHT22;54366;51.980;5.856;2022-11-15T15:17:59;13.50;67.10
67529;DHT22;54366;51.980;5.856;2022-11-15T15:20:25;13.50;66.70
67529;DHT22;54366;51.980;5.856;2022-11-15T15:22:51;13.50;66.70
67529;DHT22;54366;51.980;5.856;2022-11-15T15:25:32;13.50;67.10
67529;DHT22;54366;51.980;5.856;2022-11-15T15:27:59;13.50;66.90
67529;DHT22;54366;51.980;5.856;2022-11-15T15:30:27;13.40;67.40
67529;DHT22;54366;51.980;5.856;2022-11-15T15:32:54;13.40;67.70
67529;DHT22;54366;51.980;5.856;2022-11-15T15:35:21;13.40;66.90
67529;DHT22;54366;51.980;5.856;2022-11-15T15:37:48;13.40;66.90
67529;DHT22;54366;51.980;5.856;2022-11-15T15:40:20;13.40;67.10
67529;DHT22;54366;51.980;5.856;2022-11-15T15:42:48;13.40;67.60
67529;DHT22;54366;51.980;5.856;2022-11-15T15:45:16;13.40;67.90
67529;DHT22;54366;51.980;5.856;2022-11-15T15:47:42;13.40;67.30
67529;DHT22;54366;51.980;5.856;2022-11-15T15:52:51;13.40;67.70
67529;DHT22;54366;51.980;5.856;2022-11-15T15:55:18;13.30;67.40
67529;DHT22;54366;51.980;5.856;2022-11-15T15:57:44;13.30;67.80
67529;DHT22;54366;51.980;5.856;2022-11-15T16:00:12;13.30;68.20
67529;DHT22;54366;51.980;5.856;2022-11-15T16:02:39;13.30;67.80
67529;DHT22;54366;51.980;5.856;2022-11-15T16:05:06;13.30;68.00
67529;DHT22;54366;51.980;5.856;2022-11-15T16:07:33;13.30;68.00
67529;DHT22;54366;51.980;5.856;2022-11-15T16:09:59;13.40;68.30
67529;DHT22;54366;51.980;5.856;2022-11-15T16:12:27;13.30;69.00
67529;DHT22;54366;51.980;5.856;2022-11-15T16:14:53;13.30;68.50
67529;DHT22;54366;51.980;5.856;2022-11-15T16:17:30;13.40;68.70
67529;DHT22;54366;51.980;5.856;2022-11-15T16:19:57;13.30;68.70
67529;DHT22;54366;51.980;5.856;2022-11-15T16:22:24;13.40;68.50
67529;DHT22;54366;51.980;5.856;2022-11-15T16:24:50;13.30;68.60
67529;DHT22;54366;51.980;5.856;2022-11-15T16:27:19;13.30;68.60
67529;DHT22;54366;51.980;5.856;2022-11-15T16:29:46;13.40;68.60
67529;DHT22;54366;51.980;5.856;2022-11-15T16:32:13;13.40;68.90
67529;DHT22;54366;51.980;5.856;2022-11-15T16:34:40;13.40;68.80
67529;DHT22;54366;51.980;5.856;2022-11-15T16:37:18;13.40;68.80
67529;DHT22;54366;51.980;5.856;2022-11-15T16:39:47;13.40;69.00
67529;DHT22;54366;51.980;5.856;2022-11-15T16:42:13;13.40;69.00
67529;DHT22;54366;51.980;5.856;2022-11-15T16:44:39;13.40;69.10
67529;DHT22;54366;51.980;5.856;2022-11-15T16:47:17;13.40;69.20
67529;DHT22;54366;51.980;5.856;2022-11-15T16:49:44;13.40;69.50
67529;DHT22;54366;51.980;5.856;2022-11-15T16:52:10;13.40;69.50
67529;DHT22;54366;51.980;5.856;2022-11-15T16:54:37;13.50;69.70
67529;DHT22;54366;51.980;5.856;2022-11-15T16:57:03;13.50;69.50
67529;DHT22;54366;51.980;5.856;2022-11-15T16:59:29;13.50;69.70
67529;DHT22;54366;51.980;5.856;2022-11-15T17:01:57;13.50;69.70
67529;DHT22;54366;51.980;5.856;2022-11-15T17:04:23;13.50;69.90
67529;DHT22;54366;51.980;5.856;2022-11-15T17:06:52;13.50;69.80
67529;DHT22;54366;51.980;5.856;2022-11-15T17:09:22;13.50;69.90
67529;DHT22;54366;51.980;5.856;2022-11-15T17:11:49;13.50;70.60
67529;DHT22;54366;51.980;5.856;2022-11-15T17:14:16;13.50;70.00
67529;DHT22;54366;51.980;5.856;2022-11-15T17:16:42;13.50;70.00
67529;DHT22;54366;51.980;5.856;2022-11-15T17:19:14;13.50;70.00
67529;DHT22;54366;51.980;5.856;2022-11-15T17:21:42;13.50;70.00
67529;DHT22;54366;51.980;5.856;2022-11-15T17:24:09;13.50;70.20
67529;DHT22;54366;51.980;5.856;2022-11-15T17:26:36;13.50;70.30
67529;DHT22;54366;51.980;5.856;2022-11-15T17:29:02;13.60;70.40
67529;DHT22;54366;51.980;5.856;2022-11-15T17:31:38;13.50;70.40
67529;DHT22;54366;51.980;5.856;2022-11-15T17:34:05;13.60;70.50
67529;DHT22;54366;51.980;5.856;2022-11-15T17:36:32;13.50;70.50
67529;DHT22;54366;51.980;5.856;2022-11-15T17:38:58;13.50;70.60
67529;DHT22;54366;51.980;5.856;2022-11-15T17:41:24;13.50;71.10
67529;DHT22;54366;51.980;5.856;2022-11-15T17:43:50;13.50;71.60
67529;DHT22;54366;51.980;5.856;2022-11-15T17:46:19;13.50;71.70
67529;DHT22;54366;51.980;5.856;2022-11-15T17:48:46;13.50;72.00
67529;DHT22;54366;51.980;5.856;2022-11-15T17:51:15;13.50;72.20
67529;DHT22;54366;51.980;5.856;2022-11-15T17:53:43;13.50;72.60
67529;DHT22;54366;51.980;5.856;2022-11-15T17:56:15;13.50;72.70
67529;DHT22;54366;51.980;5.856;2022-11-15T17:58:46;13.50;72.80
67529;DHT22;54366;51.980;5.856;2022-11-15T18:01:21;13.50;73.00
67529;DHT22;54366;51.980;5.856;2022-11-15T18:03:47;13.50;73.10
67529;DHT22;54366;51.980;5.856;2022-11-15T18:06:14;13.50;73.20
67529;DHT22;54366;51.980;5.856;2022-11-15T18:08:42;13.50;73.30
67529;DHT22;54366;51.980;5.856;2022-11-15T18:11:14;13.50;73.60
67529;DHT22;54366;51.980;5.856;2022-11-15T18:13:44;13.50;73.60
67529;DHT22;54366;51.980;5.856;2022-11-15T18:16:12;13.40;73.70
67529;DHT22;54366;51.980;5.856;2022-11-15T18:18:39;13.40;74.30
67529;DHT22;54366;51.980;5.856;2022-11-15T18:21:11;13.40;74.60
67529;DHT22;54366;51.980;5.856;2022-11-15T18:23:38;13.40;74.80
67529;DHT22;54366;51.980;5.856;2022-11-15T18:26:05;13.40;75.70
67529;DHT22;54366;51.980;5.856;2022-11-15T18:28:33;13.30;75.20
67529;DHT22;54366;51.980;5.856;2022-11-15T18:31:01;13.30;75.20
67529;DHT22;54366;51.980;5.856;2022-11-15T18:33:29;13.40;76.30
67529;DHT22;54366;51.980;5.856;2022-11-15T18:35:59;13.30;76.00
67529;DHT22;54366;51.980;5.856;2022-11-15T18:38:26;13.30;76.70
67529;DHT22;54366;51.980;5.856;2022-11-15T18:41:16;13.30;76.50
67529;DHT22;54366;51.980;5.856;2022-11-15T18:43:46;13.30;76.80
67529;DHT22;54366;51.980;5.856;2022-11-15T18:46:17;13.30;77.20
67529;DHT22;54366;51.980;5.856;2022-11-15T18:48:45;13.20;77.10
67529;DHT22;54366;51.980;5.856;2022-11-15T18:51:13;13.20;77.10
67529;DHT22;54366;51.980;5.856;2022-11-15T18:53:41;13.20;77.40
67529;DHT22;54366;51.980;5.856;2022-11-15T18:56:13;13.20;77.40
67529;DHT22;54366;51.980;5.856;2022-11-15T18:58:42;13.20;77.50